Motocross, GP Lettonia 2016, gara-2: a Febvre il bis di Kegums. Un Cairoli da sogno chiude secondo. 4° Gajser

Tony-Cairoli-e-Nagl-Motocross-FOTOCATTAGNI1.jpg

Romain Febvre riscatta un’opaca prima manche imponendosi di prepotenza in gara-2. Ma la vera “notizia” di giornata è la performance da sogno del nostro Tony Cairoli. A Kegums, il fin qui sfortunato campione di Patti è scattato benissimo ed ha condotto le danze per circa metà gara. Il transalpino, iridato in carica, è l’unico a reggere il ritmo imposto dal siciliano, trasformando ben presto il bis sui 1540 metri di sabbia dura lettone in un emozionante testa a testa.

Il vantaggio di Cairoli (arrivato anche oltre i sei secondi) si è assottigliato giro dopo giro, fino al definitivo sorpasso di Febvre a sette tornate dal termine; il rider della Yamaha ha subito tentato la controfuga, arrivando al traguardo con ben 12.4 secondi di vantaggio sull’italiano della KTM.

La seconda manche lettone ha visto sul terzo gradino podio il compagno di squadra di Febvre, il belga Jeremy Van Horebeek, attento e costante, protagonista di un buon round a Kegums, dopo il quarto posto di gara-1. Solo quarto il vincitore di stamane, Tim Gajer, vittima di una caduta nelle primissime battute di gara, quindi costretto ad un’arrembante corsa in rimonta. Il rookie sloveno riesce nell’impresa di scalare venti posizioni e conquistare punti preziosissimi in ottica Mondiale. 

 

L’ORDINE DI ARRIVO MXGP GARA-2

MXGP – Race 2 – Classification
Pos Nr Rider Nat. Fed. Bike Time laps Diff. First Diff. Prev. Bestlaptime in lap Speed
1 461 Febvre, Romain FRA FFM Yamaha 34:06.040 17 0:00.000 0:00.000 1:52.205 4 49.4
2 222 Cairoli, Antonio ITA FMI KTM 34:18.460 17 0:12.420 0:12.420 1:52.851 3 49.1
3 89 Van Horebeek, Jeremy BEL FMB Yamaha 34:24.587 17 0:18.547 0:06.127 1:53.989 10 48.6
4 243 Gajser, Tim SLO AMZS Honda 34:30.333 17 0:24.293 0:05.746 1:54.027 6 48.6
5 12 Nagl, Maximilian GER DMSB Husqvarna 34:32.010 17 0:25.970 0:01.677 1:53.443 3 48.8
6 777 Bobryshev, Evgeny RUS MUL Honda 34:44.709 17 0:38.669 0:12.699 1:55.326 6 48
7 24 Simpson, Shaun GBR ACU KTM 34:48.446 17 0:42.406 0:03.737 1:55.560 12 47.9
8 23 Charlier, Christophe FRA FFM Husqvarna 34:53.598 17 0:47.558 0:05.152 1:55.076 3 48.1
9 100 Searle, Tommy GBR ACU Kawasaki 35:10.736 17 1:04.696 0:17.138 1:56.313 2 47.6
10 92 Guillod, Valentin SUI FMS Yamaha 35:13.373 17 1:07.333 0:02.637 1:56.161 2 47.7
11 32 Potisek, Milko FRA FFM Yamaha 35:15.108 17 1:09.068 0:01.735 1:57.483 4 47.1
12 7 Leok, Tanel EST EMF KTM 35:16.258 17 1:10.218 0:01.150 1:56.798 5 47.4
13 8 Townley, Ben NZL MNZ Suzuki 35:17.555 17 1:11.515 0:01.297 1:55.295 8 48
14 685 Lenoir, Steven FRA FFM Honda 35:23.721 17 1:17.681 0:06.166 1:58.265 7 46.8
15 259 Coldenhoff, Glenn NED KNMV KTM 35:24.441 17 1:18.401 0:00.720 1:56.514 8 47.5
16 45 Nicholls, Jake GBR ACU Husqvarna 35:40.679 17 1:34.639 0:16.238 1:58.125 9 46.9
17 17 Butron, Jose ESP RFME KTM 35:52.539 17 1:46.499 0:11.860 1:58.842 1 46.6
18 999 Goncalves, Rui POR FMP Husqvarna 35:53.770 17 1:47.730 0:01.231 1:57.414 17 47.2
19 156 Heidecke, Angus GER DMSB KTM 35:55.535 17 1:49.495 0:01.765 1:59.603 5 46.3
20 177 Jasikonis, Arminas LTU DMSB Kawasaki 36:02.533 17 1:56.493 0:06.998 1:58.376 4 46.8
21 50 Macuks, Toms LAT LAMSF Kawasaki 36:15.619 17 2:09.579 0:13.086 2:00.372 5 46
22 149 Ullrich, Dennis GER DMSB KTM 34:09.845 16 1 lap 1 lap 1:57.977 4 46.9
23 430 Malin, Valtteri FIN SML KTM 34:21.859 16 1 lap 0:12.014 1:59.742 4 46.2
24 400 Yamamoto, Kei JPN FMI Honda 34:40.280 16 1 lap 0:18.421 1:59.928 1 46.2
25 621 Lusbo, Andero EST EMF Yamaha 34:52.000 16 1 lap 0:11.720 2:01.919 10 45.4
26 300 Golovkin, Viacheslav RUS MFR KTM 35:22.686 16 1 lap 0:30.686 2:03.936 2 44.7
27 22 Strijbos, Kevin BEL FMB Suzuki 22:34.108 11 6 laps 5 laps 1:53.823 9 48.7
28 920 Valentin, Ander ESP RFME Kawasaki 23:54.951 11 6 laps 1:20.843 1:59.643 3 46.3
29 63 Klein Kromhof, Ceriel NED KNMV Honda 22:04.628 10 7 laps 1 lap 1:57.204 3 47.3
30 600 Ivanovs, Davis LAT LAMSF Yamaha 10:09.553 4 13 laps 6 laps 2:01.515 2 45.6
31 25 Desalle, Clement BEL FMB Kawasaki 0:00.000 -1 18 laps 5 laps 0:00.000 0

Clicca qui per mettere “Mi piace” alla nostra pagina Facebook
Clicca qui per iscriverti al nostro gruppo
Clicca qui per seguirci su Twitter

FOTOCATTAGNI

giuseppe.urbano@oasport.it

Lascia un commento

Top